createdAt,value
2018-09-27T00:00:04.123Z,14.30
2018-09-27T00:02:32.555Z,12.53
2018-09-27T00:05:01.328Z,16.30
2018-09-27T00:07:29.764Z,12.77
2018-09-27T00:09:57.909Z,13.30
2018-09-27T00:12:26.372Z,14.13
2018-09-27T00:14:54.767Z,15.40
2018-09-27T00:17:23.550Z,14.30
2018-09-27T00:19:51.908Z,13.53
2018-09-27T00:22:20.544Z,14.27
2018-09-27T00:24:49.092Z,14.00
2018-09-27T00:27:17.615Z,16.20
2018-09-27T00:29:46.019Z,12.30
2018-09-27T00:32:14.391Z,12.80
2018-09-27T00:34:42.768Z,16.63
2018-09-27T00:37:11.223Z,16.50
2018-09-27T00:39:39.837Z,16.47
2018-09-27T00:42:08.271Z,14.97
2018-09-27T00:44:36.860Z,14.67
2018-09-27T00:47:05.383Z,12.73
2018-09-27T00:49:34.167Z,12.77
2018-09-27T00:52:02.705Z,14.90
2018-09-27T00:54:31.236Z,13.13
2018-09-27T00:56:59.943Z,13.77
2018-09-27T00:59:28.530Z,16.10
2018-09-27T01:01:57.105Z,13.30
2018-09-27T01:04:25.917Z,13.60
2018-09-27T01:06:54.514Z,16.03
2018-09-27T01:09:23.055Z,12.83
2018-09-27T01:11:51.558Z,14.50
2018-09-27T01:14:20.240Z,16.77
2018-09-27T01:16:48.839Z,13.13
2018-09-27T01:19:17.526Z,11.90
2018-09-27T01:21:46.072Z,19.07
2018-09-27T01:24:14.732Z,11.70
2018-09-27T01:26:43.235Z,16.10
2018-09-27T01:29:12.016Z,14.07
2018-09-27T01:31:40.578Z,18.60
2018-09-27T01:34:09.168Z,14.97
2018-09-27T01:36:37.710Z,18.23
2018-09-27T01:39:07.973Z,15.10
2018-09-27T01:41:36.504Z,16.10
2018-09-27T01:44:05.068Z,14.07
2018-09-27T01:46:33.845Z,13.53
2018-09-27T01:49:02.411Z,16.60
2018-09-27T01:51:30.938Z,16.50
2018-09-27T01:53:59.465Z,14.70
2018-09-27T01:56:27.996Z,12.47
2018-09-27T01:58:56.646Z,14.63
2018-09-27T02:01:25.172Z,13.40
2018-09-27T02:03:53.690Z,12.53
2018-09-27T02:06:22.325Z,14.77
2018-09-27T02:08:50.822Z,15.13
2018-09-27T02:11:19.365Z,14.50
2018-09-27T02:13:47.890Z,14.27
2018-09-27T02:16:16.392Z,13.60
2018-09-27T02:18:44.902Z,11.97
2018-09-27T02:21:13.668Z,13.47
2018-09-27T02:23:42.266Z,16.90
2018-09-27T02:26:10.877Z,13.30
2018-09-27T02:28:39.725Z,14.77
2018-09-27T02:31:08.541Z,15.90
2018-09-27T02:33:37.125Z,16.50
2018-09-27T02:36:05.737Z,11.77
2018-09-27T02:38:34.492Z,10.80
2018-09-27T02:41:03.125Z,14.13
2018-09-27T02:43:31.880Z,14.70
2018-09-27T02:46:00.444Z,17.03
2018-09-27T02:48:28.964Z,15.70
2018-09-27T02:50:57.552Z,16.17
2018-09-27T02:53:26.047Z,14.90
2018-09-27T02:55:54.762Z,12.60
2018-09-27T02:58:23.618Z,11.90
2018-09-27T03:00:52.182Z,14.43
2018-09-27T03:03:20.998Z,12.07
2018-09-27T03:05:49.506Z,13.87
2018-09-27T03:08:17.986Z,13.73
2018-09-27T03:10:46.187Z,13.97
2018-09-27T03:13:14.937Z,15.77
2018-09-27T03:15:43.407Z,15.43
2018-09-27T03:18:12.332Z,14.80
2018-09-27T03:20:41.039Z,14.43
2018-09-27T03:23:09.642Z,18.90
2018-09-27T03:25:37.866Z,16.80
2018-09-27T03:28:06.414Z,21.33
2018-09-27T03:30:34.938Z,16.20
2018-09-27T03:33:03.497Z,16.07
2018-09-27T03:35:32.210Z,17.77
2018-09-27T03:38:01.127Z,18.67
2018-09-27T03:40:29.935Z,18.50
2018-09-27T03:42:58.544Z,16.37
2018-09-27T03:45:27.102Z,15.53
2018-09-27T03:47:55.710Z,17.03
2018-09-27T03:50:30.857Z,15.13
2018-09-27T03:52:59.726Z,18.77
2018-09-27T03:55:28.253Z,20.13
2018-09-27T03:57:56.826Z,16.30
2018-09-27T04:00:25.688Z,16.30
2018-09-27T04:02:54.438Z,16.17
2018-09-27T04:05:30.035Z,20.43
2018-09-27T04:07:59.655Z,14.17
2018-09-27T04:10:28.213Z,15.00
2018-09-27T04:12:57.001Z,14.00
2018-09-27T04:15:25.694Z,17.03
2018-09-27T04:17:54.188Z,18.60
2018-09-27T04:20:22.694Z,21.57
2018-09-27T04:22:51.302Z,21.23
2018-09-27T04:25:19.834Z,14.80
2018-09-27T04:27:48.519Z,18.13
2018-09-27T04:30:17.252Z,17.17
2018-09-27T04:32:46.008Z,22.43
2018-09-27T04:35:14.557Z,16.27
2018-09-27T04:37:43.232Z,16.33
2018-09-27T04:40:11.741Z,19.23
2018-09-27T04:42:40.551Z,19.53
2018-09-27T04:45:09.179Z,16.57
2018-09-27T04:47:37.670Z,16.70
2018-09-27T04:50:06.348Z,19.33
2018-09-27T04:52:34.907Z,20.87
2018-09-27T04:55:03.815Z,17.03
2018-09-27T04:57:32.696Z,14.27
2018-09-27T05:00:01.262Z,17.43
2018-09-27T05:02:31.247Z,20.97
2018-09-27T05:05:00.196Z,16.30
2018-09-27T05:07:28.471Z,17.40
2018-09-27T05:09:57.062Z,17.30
2018-09-27T05:12:25.861Z,25.70
2018-09-27T05:14:54.532Z,15.77
2018-09-27T05:17:23.100Z,21.97
2018-09-27T05:19:51.733Z,18.87
2018-09-27T05:22:20.732Z,20.13
2018-09-27T05:24:49.329Z,23.93
2018-09-27T05:27:18.303Z,18.47
2018-09-27T05:29:47.109Z,16.93
2018-09-27T05:32:15.593Z,17.97
2018-09-27T05:34:44.279Z,16.63
2018-09-27T05:37:12.899Z,20.90
2018-09-27T05:39:41.597Z,18.93
2018-09-27T05:42:11.043Z,20.50
2018-09-27T05:44:39.752Z,19.30
2018-09-27T05:47:08.479Z,18.43
2018-09-27T05:49:37.092Z,17.90
2018-09-27T05:52:05.860Z,17.20
2018-09-27T05:54:34.505Z,19.40
2018-09-27T05:57:03.847Z,20.07
2018-09-27T05:59:32.501Z,23.70
2018-09-27T06:02:01.211Z,18.70
2018-09-27T06:04:29.779Z,22.63
2018-09-27T06:06:58.510Z,18.03
2018-09-27T06:09:27.404Z,23.30
2018-09-27T06:11:56.344Z,20.03
2018-09-27T06:14:24.899Z,16.73
2018-09-27T06:16:53.645Z,17.47
2018-09-27T06:19:22.211Z,17.13
2018-09-27T06:21:50.920Z,19.30
2018-09-27T06:24:19.518Z,21.80
2018-09-27T06:26:48.162Z,21.30
2018-09-27T06:29:16.781Z,20.70
2018-09-27T06:31:45.478Z,18.60
2018-09-27T06:34:14.271Z,16.93
2018-09-27T06:36:42.833Z,19.60
2018-09-27T06:39:11.549Z,16.83
2018-09-27T06:41:40.305Z,20.90
2018-09-27T06:44:09.013Z,17.57
2018-09-27T06:46:37.558Z,17.57
2018-09-27T06:49:06.318Z,17.13
2018-09-27T06:51:35.122Z,17.93
2018-09-27T06:54:03.779Z,19.27
2018-09-27T06:56:32.595Z,19.27
2018-09-27T06:59:01.349Z,17.20
2018-09-27T07:01:30.173Z,16.57
2018-09-27T07:03:58.730Z,18.00
2018-09-27T07:06:27.276Z,19.67
2018-09-27T07:08:56.327Z,18.30
2018-09-27T07:11:24.924Z,20.70
2018-09-27T07:13:53.497Z,17.40
2018-09-27T07:16:21.980Z,16.60
2018-09-27T07:18:50.662Z,20.27
2018-09-27T07:21:19.165Z,18.37
2018-09-27T07:23:47.682Z,22.90
2018-09-27T07:26:16.271Z,18.17
2018-09-27T07:28:44.798Z,18.60
2018-09-27T07:31:13.415Z,17.53
2018-09-27T07:33:41.929Z,18.77
2018-09-27T07:36:10.618Z,19.93
2018-09-27T07:38:39.195Z,18.30
2018-09-27T07:41:08.051Z,18.30
2018-09-27T07:43:36.600Z,17.40
2018-09-27T07:46:05.184Z,16.93
2018-09-27T07:48:33.733Z,19.00
2018-09-27T07:51:02.300Z,22.37
2018-09-27T07:53:30.849Z,20.33
2018-09-27T07:55:59.152Z,16.10
2018-09-27T07:58:27.840Z,16.20
2018-09-27T08:00:56.410Z,16.60
2018-09-27T08:03:24.995Z,14.57
2018-09-27T08:05:53.551Z,15.13
2018-09-27T08:08:22.088Z,15.73
2018-09-27T08:10:51.156Z,15.30
2018-09-27T08:13:19.682Z,17.03
2018-09-27T08:15:48.331Z,15.13
2018-09-27T08:18:17.198Z,14.67
2018-09-27T08:20:45.865Z,16.83
2018-09-27T08:23:14.457Z,13.57
2018-09-27T08:25:43.064Z,16.60
2018-09-27T08:28:11.583Z,14.67
2018-09-27T08:30:40.789Z,17.00
2018-09-27T08:33:09.866Z,12.80
2018-09-27T08:35:38.757Z,14.53
2018-09-27T08:38:07.300Z,16.20
2018-09-27T08:40:36.052Z,17.97
2018-09-27T08:43:04.773Z,14.67
2018-09-27T08:45:33.648Z,14.40
2018-09-27T08:48:02.441Z,15.97
2018-09-27T08:50:31.123Z,16.00
2018-09-27T08:52:59.767Z,13.47
2018-09-27T08:55:28.184Z,14.07
2018-09-27T08:57:56.858Z,13.93
2018-09-27T09:00:26.118Z,13.23
2018-09-27T09:02:55.068Z,12.27
2018-09-27T09:05:24.364Z,11.93
2018-09-27T09:07:53.150Z,12.63
2018-09-27T09:10:22.611Z,10.73
2018-09-27T09:12:51.403Z,9.90
2018-09-27T09:15:20.919Z,9.40
2018-09-27T09:17:49.859Z,10.10
2018-09-27T09:20:18.607Z,11.53
2018-09-27T09:22:48.280Z,16.93
2018-09-27T09:25:16.696Z,21.17
2018-09-27T09:27:45.602Z,17.10
2018-09-27T09:30:14.580Z,19.63
2018-09-27T09:32:43.565Z,15.63
2018-09-27T09:35:12.517Z,15.80
2018-09-27T09:37:41.243Z,13.63
2018-09-27T09:40:09.801Z,14.30
2018-09-27T09:42:38.524Z,13.80
2018-09-27T09:45:07.461Z,15.07
2018-09-27T09:47:36.105Z,10.80
2018-09-27T09:50:08.841Z,12.50
2018-09-27T09:52:40.157Z,13.23
2018-09-27T09:55:09.908Z,13.93
2018-09-27T09:57:38.969Z,13.30
2018-09-27T10:00:08.421Z,9.80
2018-09-27T10:02:38.258Z,10.53
2018-09-27T10:05:07.218Z,12.03
2018-09-27T10:07:35.832Z,8.13
2018-09-27T10:10:06.128Z,10.73
2018-09-27T10:12:35.193Z,12.83
2018-09-27T10:15:04.672Z,13.20
2018-09-27T10:17:34.104Z,10.87
2018-09-27T10:20:03.799Z,10.97
2018-09-27T10:22:35.706Z,13.57
2018-09-27T10:25:04.410Z,12.10
2018-09-27T10:27:33.363Z,9.37
2018-09-27T10:30:02.118Z,12.43
2018-09-27T10:32:30.936Z,8.23
2018-09-27T10:34:59.969Z,9.23
2018-09-27T10:42:10.600Z,8.93
2018-09-27T10:44:39.429Z,8.30
2018-09-27T10:47:11.612Z,10.67
2018-09-27T10:49:40.648Z,7.93
2018-09-27T10:52:13.809Z,9.17
2018-09-27T10:54:43.624Z,7.27
2018-09-27T10:57:15.489Z,7.00
2018-09-27T10:59:47.754Z,7.73
2018-09-27T11:02:25.914Z,7.47
2018-09-27T11:05:25.558Z,7.40
2018-09-27T11:08:00.894Z,7.10
2018-09-27T11:10:29.775Z,10.40
2018-09-27T11:12:58.744Z,8.20
2018-09-27T11:15:28.953Z,11.27
2018-09-27T11:17:59.191Z,7.93
2018-09-27T11:20:31.383Z,8.93
2018-09-27T11:23:02.874Z,7.90
2018-09-27T11:25:37.092Z,8.57
2018-09-27T11:28:06.510Z,9.87
2018-09-27T11:30:35.677Z,10.30
2018-09-27T11:33:07.629Z,9.73
2018-09-27T11:35:36.605Z,9.80
2018-09-27T11:38:07.307Z,8.50
2018-09-27T11:40:40.571Z,11.30
2018-09-27T11:43:09.329Z,13.50
2018-09-27T11:45:38.032Z,9.50
2018-09-27T11:48:06.740Z,9.00
2018-09-27T11:50:35.304Z,10.37
2018-09-27T11:53:07.076Z,9.00
2018-09-27T11:55:35.746Z,13.80
2018-09-27T11:58:04.776Z,10.07
2018-09-27T12:00:33.602Z,10.00
2018-09-27T12:03:02.297Z,11.10
2018-09-27T12:05:30.943Z,9.83
2018-09-27T12:08:06.379Z,9.33
2018-09-27T12:10:34.962Z,9.60
2018-09-27T12:13:03.570Z,11.17
2018-09-27T12:15:32.185Z,9.10
2018-09-27T12:18:01.016Z,10.33
2018-09-27T12:20:29.780Z,11.40
2018-09-27T12:22:58.491Z,12.10
2018-09-27T12:25:27.210Z,8.20
2018-09-27T12:27:55.806Z,9.50
2018-09-27T12:30:24.538Z,10.70
2018-09-27T12:32:53.733Z,12.57
2018-09-27T12:35:22.434Z,9.97
2018-09-27T12:37:51.106Z,9.30
2018-09-27T12:40:19.707Z,9.23
2018-09-27T12:42:48.376Z,9.67
2018-09-27T12:45:16.962Z,10.17
2018-09-27T12:47:45.702Z,8.70
2018-09-27T12:50:14.588Z,8.37
2018-09-27T12:52:43.371Z,10.00
2018-09-27T12:55:11.866Z,10.30
2018-09-27T12:57:40.736Z,9.17
2018-09-27T13:00:09.607Z,8.00
2018-09-27T13:02:38.368Z,8.57
2018-09-27T13:05:07.052Z,7.50
2018-09-27T13:07:35.733Z,7.60
2018-09-27T13:10:04.622Z,9.13
2018-09-27T13:12:33.294Z,10.27
2018-09-27T13:15:02.023Z,10.50
2018-09-27T13:17:30.761Z,8.30
2018-09-27T13:19:59.433Z,7.23
2018-09-27T13:22:28.325Z,9.87
2018-09-27T13:24:58.078Z,11.00
2018-09-27T13:27:26.708Z,8.60
2018-09-27T13:29:55.569Z,7.03
2018-09-27T13:32:24.297Z,12.63
2018-09-27T13:34:53.131Z,9.23
2018-09-27T13:37:23.021Z,9.33
2018-09-27T13:39:51.685Z,8.93
2018-09-27T13:42:20.211Z,10.73
2018-09-27T13:44:49.483Z,11.27
2018-09-27T13:47:18.063Z,12.03
2018-09-27T13:49:46.627Z,10.20
2018-09-27T13:52:16.180Z,11.47
2018-09-27T13:54:45.001Z,10.53
2018-09-27T13:57:13.736Z,10.70
2018-09-27T13:59:42.318Z,11.13
2018-09-27T14:02:10.948Z,12.70
2018-09-27T14:04:39.866Z,9.20
2018-09-27T14:07:08.818Z,12.30
2018-09-27T14:09:37.472Z,8.83
2018-09-27T14:12:06.277Z,12.13
2018-09-27T14:14:35.781Z,10.10
2018-09-27T14:17:04.867Z,11.10
2018-09-27T14:19:33.483Z,9.40
2018-09-27T14:22:02.076Z,11.77
2018-09-27T14:24:30.996Z,10.10
2018-09-27T14:26:59.699Z,9.77
2018-09-27T14:29:28.343Z,8.87
2018-09-27T14:31:57.298Z,8.23
2018-09-27T14:34:26.042Z,8.20
2018-09-27T14:37:01.634Z,9.37
2018-09-27T14:39:30.287Z,10.50
2018-09-27T14:41:59.084Z,9.10
2018-09-27T14:44:27.861Z,8.87
2018-09-27T14:46:56.448Z,9.37
2018-09-27T14:49:25.271Z,9.97
2018-09-27T14:51:53.609Z,11.43
2018-09-27T14:54:22.358Z,9.50
2018-09-27T14:56:51.154Z,10.10
2018-09-27T14:59:20.150Z,9.30
2018-09-27T15:01:48.885Z,12.37
2018-09-27T15:04:17.513Z,13.27
2018-09-27T15:06:46.324Z,10.77
2018-09-27T15:09:15.683Z,10.00
2018-09-27T15:11:44.235Z,12.60
2018-09-27T15:14:12.876Z,13.10
2018-09-27T15:16:41.612Z,10.73
2018-09-27T15:19:10.303Z,15.60
2018-09-27T15:21:38.603Z,21.70
2018-09-27T15:24:07.265Z,16.43
2018-09-27T15:26:36.342Z,16.70
2018-09-27T15:29:04.966Z,14.37
2018-09-27T15:31:33.615Z,14.17
2018-09-27T15:34:02.636Z,14.33
2018-09-27T15:36:31.776Z,14.40
2018-09-27T15:39:00.646Z,15.17
2018-09-27T15:41:29.783Z,12.13
2018-09-27T15:44:00.842Z,15.77
2018-09-27T15:46:29.446Z,12.10
2018-09-27T15:48:58.483Z,12.73
2018-09-27T15:51:27.386Z,13.57
2018-09-27T15:53:56.009Z,11.90
2018-09-27T15:56:24.885Z,14.17
2018-09-27T15:58:53.685Z,13.93
2018-09-27T16:01:22.483Z,12.10
2018-09-27T16:03:51.141Z,11.77
2018-09-27T16:06:20.207Z,11.33
2018-09-27T16:08:48.780Z,12.03
2018-09-27T16:11:17.534Z,10.60
2018-09-27T16:13:46.204Z,11.37
2018-09-27T16:16:14.808Z,14.60
2018-09-27T16:18:43.386Z,14.97
2018-09-27T16:21:11.982Z,13.67
2018-09-27T16:23:40.671Z,13.17
2018-09-27T16:26:09.539Z,15.97
2018-09-27T16:28:38.458Z,14.20
2018-09-27T16:31:07.235Z,11.20
2018-09-27T16:33:36.484Z,13.30
2018-09-27T16:36:05.274Z,13.30
2018-09-27T16:38:34.645Z,15.30
2018-09-27T16:41:03.867Z,14.23
2018-09-27T16:43:34.413Z,13.67
2018-09-27T16:46:04.067Z,15.93
2018-09-27T16:48:32.853Z,13.93
2018-09-27T16:51:01.510Z,14.60
2018-09-27T16:53:30.281Z,14.67
2018-09-27T16:55:59.250Z,13.37
2018-09-27T16:58:27.962Z,15.60
2018-09-27T17:00:56.566Z,15.97
2018-09-27T17:03:25.283Z,15.73
2018-09-27T17:05:54.144Z,15.27
2018-09-27T17:08:22.916Z,15.87
2018-09-27T17:10:51.550Z,15.27
2018-09-27T17:13:20.144Z,15.37
2018-09-27T17:15:48.762Z,17.27
2018-09-27T17:18:17.383Z,16.00
2018-09-27T17:20:46.075Z,16.57
2018-09-27T17:23:14.727Z,16.03
2018-09-27T17:25:43.381Z,14.60
2018-09-27T17:28:11.977Z,15.80
2018-09-27T17:30:40.797Z,15.37
2018-09-27T17:33:09.513Z,17.23
2018-09-27T17:35:38.095Z,15.80
2018-09-27T17:38:07.172Z,15.63
2018-09-27T17:40:35.663Z,15.90
2018-09-27T17:43:05.593Z,15.20
2018-09-27T17:45:34.319Z,16.90
2018-09-27T17:48:03.739Z,16.70
2018-09-27T17:50:32.671Z,18.97
2018-09-27T17:53:01.604Z,20.70
2018-09-27T17:55:29.900Z,16.07
2018-09-27T17:58:00.535Z,18.67
2018-09-27T18:00:30.022Z,15.80
2018-09-27T18:02:58.887Z,19.13
2018-09-27T18:05:27.638Z,15.73
2018-09-27T18:07:58.206Z,18.17
2018-09-27T18:10:26.889Z,15.33
2018-09-27T18:12:55.655Z,18.17
2018-09-27T18:15:25.737Z,17.03
2018-09-27T18:17:54.447Z,18.43
2018-09-27T18:20:23.779Z,22.43
2018-09-27T18:22:52.750Z,17.43
2018-09-27T18:25:22.737Z,17.67
2018-09-27T18:27:51.765Z,18.40
2018-09-27T18:30:21.993Z,18.40
2018-09-27T18:32:50.958Z,17.87
2018-09-27T18:35:19.852Z,18.10
2018-09-27T18:37:49.261Z,17.23
2018-09-27T18:40:18.231Z,19.63
2018-09-27T18:42:47.033Z,18.37
2018-09-27T18:45:15.686Z,18.30
2018-09-27T18:47:44.369Z,19.50
2018-09-27T18:50:13.465Z,19.37
2018-09-27T18:52:42.179Z,17.93
2018-09-27T18:55:10.805Z,19.07
2018-09-27T18:57:39.501Z,18.50
2018-09-27T19:00:08.967Z,20.73
2018-09-27T19:02:38.149Z,20.67
2018-09-27T19:05:07.005Z,20.80
2018-09-27T19:07:35.909Z,21.73
2018-09-27T19:10:05.362Z,19.93
2018-09-27T19:12:34.182Z,27.33
2018-09-27T19:15:02.992Z,23.83
2018-09-27T19:17:31.661Z,24.30
2018-09-27T19:20:00.646Z,23.77
2018-09-27T19:22:29.443Z,20.80
2018-09-27T19:24:58.056Z,22.13
2018-09-27T19:27:26.687Z,27.53
2018-09-27T19:29:55.574Z,22.27
2018-09-27T19:32:24.592Z,24.93
2018-09-27T19:34:53.275Z,23.73
2018-09-27T19:37:21.547Z,22.80
2018-09-27T19:39:50.324Z,23.30
2018-09-27T19:42:19.366Z,26.93
2018-09-27T19:44:48.687Z,39.47
2018-09-27T19:47:18.755Z,29.03
2018-09-27T19:49:47.747Z,29.47
2018-09-27T19:52:16.679Z,25.30
2018-09-27T19:54:45.131Z,28.07
2018-09-27T19:57:13.839Z,36.60
2018-09-27T19:59:42.481Z,28.17
2018-09-27T20:02:12.142Z,26.10
2018-09-27T20:04:41.018Z,32.73
2018-09-27T20:07:09.761Z,24.43
2018-09-27T20:09:41.383Z,27.37
2018-09-27T20:12:11.261Z,27.63
2018-09-27T20:14:40.123Z,26.17
2018-09-27T20:17:09.167Z,25.20
2018-09-27T20:19:37.987Z,24.57
2018-09-27T20:22:09.811Z,26.97
2018-09-27T20:24:38.484Z,23.87
2018-09-27T20:27:08.507Z,27.33
2018-09-27T20:32:10.624Z,24.10
2018-09-27T20:34:40.121Z,26.30
2018-09-27T20:37:09.435Z,24.13
2018-09-27T20:39:39.267Z,22.63
2018-09-27T20:42:08.016Z,22.57
2018-09-27T20:44:36.600Z,25.63
2018-09-27T20:47:05.260Z,22.47
2018-09-27T20:49:33.795Z,23.57
2018-09-27T20:52:02.433Z,24.40
2018-09-27T20:54:31.575Z,23.87
2018-09-27T20:57:00.359Z,27.37
2018-09-27T20:59:29.138Z,23.50
2018-09-27T21:01:57.776Z,27.70
2018-09-27T21:04:26.505Z,23.30
2018-09-27T21:06:55.446Z,25.43
2018-09-27T21:09:24.104Z,24.50
2018-09-27T21:11:52.726Z,29.20
2018-09-27T21:14:21.349Z,24.10
2018-09-27T21:16:50.093Z,30.87
2018-09-27T21:19:19.892Z,29.30
2018-09-27T21:21:49.259Z,27.77
2018-09-27T21:24:17.893Z,29.23
2018-09-27T21:26:46.787Z,23.87
2018-09-27T21:29:15.623Z,27.37
2018-09-27T21:31:44.802Z,28.13
2018-09-27T21:34:13.431Z,23.70
2018-09-27T21:36:42.176Z,27.13
2018-09-27T21:39:11.046Z,26.70
2018-09-27T21:41:39.631Z,25.90
2018-09-27T21:44:08.406Z,26.63
2018-09-27T21:46:37.059Z,28.73
2018-09-27T21:49:06.027Z,25.87
2018-09-27T21:51:34.724Z,27.27
2018-09-27T21:54:03.403Z,30.53
2018-09-27T21:56:31.974Z,27.80
2018-09-27T21:59:00.557Z,24.73
2018-09-27T22:01:29.184Z,29.13
2018-09-27T22:03:57.867Z,26.23
2018-09-27T22:06:26.745Z,26.07
2018-09-27T22:08:55.710Z,27.67
2018-09-27T22:11:24.543Z,31.23
2018-09-27T22:13:53.135Z,24.87
2018-09-27T22:16:21.710Z,27.80
2018-09-27T22:18:50.387Z,27.97
2018-09-27T22:21:19.127Z,27.00
2018-09-27T22:23:47.836Z,28.73
2018-09-27T22:26:16.496Z,28.83
2018-09-27T22:28:45.053Z,28.23
2018-09-27T22:31:13.770Z,25.33
2018-09-27T22:33:42.446Z,28.60
2018-09-27T22:36:11.329Z,30.87
2018-09-27T22:38:40.210Z,30.50
2018-09-27T22:41:08.766Z,30.57
2018-09-27T22:43:37.344Z,28.73
2018-09-27T22:46:06.188Z,34.53
2018-09-27T22:48:34.850Z,28.20
2018-09-27T22:51:03.582Z,31.47
2018-09-27T22:53:32.157Z,32.47
2018-09-27T22:56:00.901Z,30.87
2018-09-27T22:58:29.490Z,29.90
2018-09-27T23:00:58.162Z,31.97
2018-09-27T23:03:26.889Z,34.83
2018-09-27T23:05:55.433Z,33.47
2018-09-27T23:08:23.993Z,32.13
2018-09-27T23:10:52.576Z,35.60
2018-09-27T23:13:21.376Z,33.13
2018-09-27T23:15:49.983Z,35.13
2018-09-27T23:18:18.703Z,37.80
2018-09-27T23:20:47.299Z,38.67
2018-09-27T23:23:15.987Z,38.53
2018-09-27T23:25:44.575Z,37.53
2018-09-27T23:28:13.321Z,40.27
2018-09-27T23:30:41.852Z,45.53
2018-09-27T23:33:10.591Z,38.90
2018-09-27T23:35:39.162Z,39.60
2018-09-27T23:38:08.065Z,42.13
2018-09-27T23:40:36.679Z,43.17
2018-09-27T23:43:05.284Z,43.60
2018-09-27T23:45:33.904Z,42.53
2018-09-27T23:48:02.493Z,42.43
2018-09-27T23:50:31.056Z,43.03
2018-09-27T23:52:59.909Z,42.07
2018-09-27T23:55:28.586Z,46.07
2018-09-27T23:57:57.401Z,48.50
